Time;durP1;ratioP1;P1;durP2;ratioP2;P2;SDS_P1;SDS_P2;PMS_P1;PMS_P2;Temp;Humidity;BMP_temperature;BMP_pressure;BME280_temperature;BME280_humidity;BME280_pressure;Samples;Min_cycle;Max_cycle;Signal;HPM_P1;HPM_P2
2021/06/26 04:58:39;;;;;;;;;10.25;8.50;;;;;18.51;73.76;101617.06;5509246;23;45393;-74
2021/06/26 05:01:04;;;;;;;;;10.25;9.75;;;;;18.52;74.07;101624.97;4973897;28;45454;-74
2021/06/26 05:03:30;;;;;;;;;8.50;7.00;;;;;18.51;73.81;101619.75;4981486;28;46360;-74
2021/06/26 05:05:55;;;;;;;;;10.25;9.25;;;;;18.46;73.78;101603.16;4981941;28;45376;-74
2021/06/26 05:08:21;;;;;;;;;10.00;10.00;;;;;18.52;73.86;101608.16;4976743;28;45438;-74
2021/06/26 05:10:48;;;;;;;;;11.00;9.25;;;;;18.47;74.39;101608.38;4982739;28;45398;-74
2021/06/26 05:13:14;;;;;;;;;13.25;10.50;;;;;18.49;73.25;101614.50;4982682;28;46266;-74
2021/06/26 05:15:41;;;;;;;;;11.75;9.50;;;;;18.55;73.27;101615.97;4982330;28;45522;-74
2021/06/26 05:18:07;;;;;;;;;7.75;7.25;;;;;18.55;72.67;101608.84;4983231;28;45296;-74
2021/06/26 05:20:32;;;;;;;;;9.50;7.00;;;;;18.56;72.90;101620.34;4981725;28;45407;-74
2021/06/26 05:22:58;;;;;;;;;6.50;6.00;;;;;18.57;72.53;101616.72;4982254;28;46289;-75
2021/06/26 05:25:23;;;;;;;;;7.00;6.25;;;;;18.54;73.24;101603.63;4982660;28;45180;-75
2021/06/26 05:27:49;;;;;;;;;10.00;9.50;;;;;18.58;73.63;101621.13;4974053;28;45222;-75
2021/06/26 05:30:15;;;;;;;;;8.25;6.25;;;;;18.55;72.89;101613.31;4982344;28;45204;-75
2021/06/26 05:32:40;;;;;;;;;8.00;7.75;;;;;18.58;72.69;101617.59;4979389;28;46110;-74
2021/06/26 05:35:07;;;;;;;;;20.25;18.00;;;;;18.54;73.78;101617.75;4976117;28;45451;-73
2021/06/26 05:37:33;;;;;;;;;11.75;11.25;;;;;18.52;74.11;101613.47;4982229;28;45596;-74
2021/06/26 05:39:58;;;;;;;;;5.75;5.75;;;;;18.57;74.00;101630.03;4982380;28;45471;-74
2021/06/26 05:42:24;;;;;;;;;7.75;7.75;;;;;18.55;74.35;101623.94;4980990;28;46232;-75
2021/06/26 05:44:49;;;;;;;;;8.25;7.50;;;;;18.54;73.31;101622.25;4980438;28;45376;-75
2021/06/26 05:47:15;;;;;;;;;6.00;6.00;;;;;18.57;73.30;101632.72;4973495;28;45714;-74
2021/06/26 05:49:40;;;;;;;;;5.00;5.00;;;;;18.52;73.60;101627.63;4974830;28;46312;-74
2021/06/26 05:52:06;;;;;;;;;8.25;8.00;;;;;18.51;73.45;101625.06;4982004;28;46425;-74
2021/06/26 05:54:32;;;;;;;;;5.00;5.00;;;;;18.53;72.93;101628.50;4981959;28;45248;-74
2021/06/26 05:56:58;;;;;;;;;4.25;3.75;;;;;18.53;72.28;101631.16;4980673;28;45216;-75
2021/06/26 05:59:23;;;;;;;;;5.75;5.75;;;;;18.55;72.82;101635.47;4981477;28;45438;-75
2021/06/26 06:01:49;;;;;;;;;5.00;4.75;;;;;18.57;72.93;101637.19;4982062;28;45372;-75
2021/06/26 06:04:14;;;;;;;;;6.25;6.25;;;;;18.57;72.66;101631.88;4981891;28;45431;-76
2021/06/26 06:06:40;;;;;;;;;7.00;7.00;;;;;18.60;73.79;101637.88;4976800;28;45367;-74
2021/06/26 06:09:06;;;;;;;;;4.75;4.25;;;;;18.59;73.19;101638.84;4979613;28;45944;-74
2021/06/26 06:11:33;;;;;;;;;5.00;5.00;;;;;18.56;72.93;101636.31;4981341;28;45453;-73
2021/06/26 06:13:58;;;;;;;;;8.50;5.50;;;;;18.57;72.46;101631.88;4979829;28;45327;-75
2021/06/26 06:16:24;;;;;;;;;5.50;5.50;;;;;18.62;72.26;101636.00;4977574;28;45365;-75
2021/06/26 06:18:51;;;;;;;;;6.50;5.25;;;;;18.64;73.22;101634.09;4975616;28;45528;-75
2021/06/26 06:21:16;;;;;;;;;5.00;4.50;;;;;18.65;72.89;101630.50;4975422;28;45442;-75
2021/06/26 06:23:42;;;;;;;;;7.00;6.00;;;;;18.63;73.46;101627.06;4973778;28;45535;-75
2021/06/26 06:26:08;;;;;;;;;4.75;4.75;;;;;18.65;73.27;101630.50;4970446;28;45468;-74
2021/06/26 06:28:33;;;;;;;;;4.50;4.50;;;;;18.64;72.32;101630.59;4978496;28;45395;-74
2021/06/26 06:31:00;;;;;;;;;5.00;3.75;;;;;18.68;72.67;101637.47;4979078;28;45376;-74
2021/06/26 06:33:26;;;;;;;;;5.75;5.25;;;;;18.68;72.37;101640.13;4977505;28;45309;-74
2021/06/26 06:35:51;;;;;;;;;6.00;5.25;;;;;18.68;72.37;101637.47;4972912;28;45514;-74
2021/06/26 06:38:17;;;;;;;;;5.75;5.00;;;;;18.71;73.21;101633.78;4973915;28;45363;-74
2021/06/26 06:40:42;;;;;;;;;5.50;4.00;;;;;18.67;72.94;101639.28;4975137;28;45470;-74
2021/06/26 06:43:08;;;;;;;;;6.00;6.00;;;;;18.69;72.65;101641.00;4973467;28;45459;-74
2021/06/26 06:45:33;;;;;;;;;2.25;2.25;;;;;18.69;72.94;101635.69;4970802;28;45519;-75
2021/06/26 06:47:59;;;;;;;;;6.75;6.75;;;;;18.71;73.16;101641.78;4980791;28;45393;-75
2021/06/26 06:50:25;;;;;;;;;6.50;6.50;;;;;18.69;73.58;101631.22;4980375;28;45582;-75
2021/06/26 06:52:50;;;;;;;;;3.50;3.00;;;;;18.68;72.97;101629.47;4981357;28;45259;-76
2021/06/26 06:55:16;;;;;;;;;5.50;5.50;;;;;18.69;73.24;101631.22;4981261;28;45376;-76
2021/06/26 06:57:41;;;;;;;;;5.00;5.00;;;;;18.70;73.58;101630.25;4978698;28;45530;-75
2021/06/26 07:00:10;;;;;;;;;4.00;3.50;;;;;18.68;72.37;101637.47;4974686;28;46957;-75
2021/06/26 07:02:36;;;;;;;;;3.00;3.00;;;;;18.66;72.56;101640.22;4976709;28;45741;-74
2021/06/26 07:05:02;;;;;;;;;5.25;3.25;;;;;18.69;72.29;101641.00;4974818;28;45578;-75
2021/06/26 07:07:27;;;;;;;;;6.00;6.00;;;;;18.72;72.63;101647.00;4977549;28;45506;-74
2021/06/26 07:09:52;;;;;;;;;6.00;6.00;;;;;18.75;73.43;101646.00;4974601;28;46323;-74
2021/06/26 07:12:18;;;;;;;;;5.75;5.50;;;;;18.70;73.34;101640.03;4973380;28;45462;-74
2021/06/26 07:14:43;;;;;;;;;3.75;3.00;;;;;18.75;72.71;101651.31;4975353;28;45502;-73
2021/06/26 07:17:09;;;;;;;;;3.25;3.25;;;;;18.76;72.47;101650.38;4974808;28;45533;-80
2021/06/26 07:19:35;;;;;;;;;5.00;5.00;;;;;18.74;72.60;101649.63;4973419;28;45540;-79
2021/06/26 07:22:00;;;;;;;;;5.00;3.75;;;;;18.74;72.70;101652.28;4972290;28;46037;-76
2021/06/26 07:24:26;;;;;;;;;4.00;4.00;;;;;18.76;72.14;101650.38;4973413;28;45535;-76
2021/06/26 07:26:51;;;;;;;;;8.00;5.50;;;;;18.76;72.20;101653.91;4972006;28;46160;-74
2021/06/26 07:29:16;;;;;;;;;3.75;3.75;;;;;18.80;72.05;101656.38;4973163;28;46119;-75
2021/06/26 07:31:42;;;;;;;;;5.00;4.25;;;;;18.81;71.67;101656.31;4973605;28;45478;-76
2021/06/26 07:34:07;;;;;;;;;7.25;6.50;;;;;18.87;72.11;101658.66;4973741;28;45522;-74
2021/06/26 07:36:33;;;;;;;;;4.75;4.00;;;;;18.85;71.43;101655.22;4978444;28;45562;-76
2021/06/26 07:38:58;;;;;;;;;9.00;6.25;;;;;18.89;72.62;101664.75;4974368;28;45441;-74
2021/06/26 07:41:24;;;;;;;;;4.75;4.75;;;;;18.85;72.93;101654.34;4973158;28;46005;-77
2021/06/26 07:43:50;;;;;;;;;5.00;4.00;;;;;18.87;72.53;101655.97;4973422;28;47613;-74
2021/06/26 07:46:18;;;;;;;;;5.00;5.00;;;;;18.91;72.28;101662.03;4973235;28;47718;-75
2021/06/26 07:48:43;;;;;;;;;6.00;5.00;;;;;18.87;72.30;101649.78;4973889;28;46084;-75
2021/06/26 07:51:09;;;;;;;;;6.75;6.00;;;;;18.87;71.73;101650.66;4974490;28;47044;-75
2021/06/26 07:53:34;;;;;;;;;5.25;5.25;;;;;18.90;72.08;101649.63;4973252;28;45962;-74
2021/06/26 07:56:00;;;;;;;;;7.50;6.00;;;;;18.88;72.29;101639.06;4972689;28;45556;-74
2021/06/26 07:58:27;;;;;;;;;5.50;5.50;;;;;18.95;71.85;101646.72;4973774;28;45470;-74
2021/06/26 08:00:54;;;;;;;;;6.25;6.25;;;;;18.94;72.27;101645.00;4971331;28;45458;-74
2021/06/26 08:03:20;;;;;;;;;7.50;6.25;;;;;18.95;73.00;101639.59;4972599;28;45982;-74
2021/06/26 08:05:46;;;;;;;;;5.50;4.00;;;;;18.97;72.26;101644.81;4972891;28;45534;-74
2021/06/26 08:08:12;;;;;;;;;6.25;6.00;;;;;18.96;73.11;101638.66;4973782;28;45846;-74
2021/06/26 08:10:38;;;;;;;;;10.75;8.50;;;;;18.96;73.18;101638.66;4972230;28;45478;-74
2021/06/26 08:13:04;;;;;;;;;8.00;8.00;;;;;18.94;73.52;101624.53;4972259;28;45551;-74
2021/06/26 08:15:30;;;;;;;;;6.00;5.25;;;;;18.98;73.03;101628.78;4975327;28;45442;-74
2021/06/26 08:17:55;;;;;;;;;8.75;7.25;;;;;18.97;73.16;101629.72;4971216;28;47229;-74
2021/06/26 08:20:23;;;;;;;;;9.25;6.00;;;;;19.04;72.74;101640.88;4972141;28;45515;-75
2021/06/26 08:22:48;;;;;;;;;6.50;6.00;;;;;18.99;72.58;101629.63;4971187;28;45727;-75
2021/06/26 08:25:14;;;;;;;;;7.00;6.00;;;;;19.01;72.62;101625.91;4971441;28;45692;-75
2021/06/26 08:27:40;;;;;;;;;5.75;4.75;;;;;19.03;72.00;101627.66;4973258;28;46201;-75
2021/06/26 08:30:06;;;;;;;;;8.25;7.25;;;;;19.05;72.57;101631.97;4972069;28;45537;-75
2021/06/26 08:32:31;;;;;;;;;7.00;6.25;;;;;19.05;73.35;101617.78;4974600;28;45419;-75
2021/06/26 08:34:57;;;;;;;;;5.50;4.75;;;;;19.09;73.30;101625.50;4972919;28;45664;-75
2021/06/26 08:37:22;;;;;;;;;8.00;7.75;;;;;19.17;73.57;101624.22;4972687;28;46075;-75
2021/06/26 08:39:47;;;;;;;;;8.50;6.25;;;;;19.16;72.30;101623.34;4978744;28;45468;-75
2021/06/26 08:42:14;;;;;;;;;7.00;7.00;;;;;19.19;72.27;101638.34;4977062;28;45339;-75
2021/06/26 08:44:42;;;;;;;;;9.25;6.00;;;;;19.19;72.16;101633.00;4975239;28;46111;-75
2021/06/26 08:47:08;;;;;;;;;5.25;5.25;;;;;19.22;71.69;101641.72;4972789;28;45449;-76
2021/06/26 08:49:33;;;;;;;;;7.75;7.00;;;;;19.23;71.99;101639.91;4971063;28;45166;-75
2021/06/26 08:51:59;;;;;;;;;8.50;5.25;;;;;19.25;71.89;101643.34;4971663;28;45475;-75
2021/06/26 08:54:24;;;;;;;;;7.00;7.00;;;;;19.24;71.51;101644.28;4972771;28;45554;-75
2021/06/26 08:56:50;;;;;;;;;7.75;7.75;;;;;19.25;72.35;101635.34;4977528;28;46070;-75
2021/06/26 08:59:16;;;;;;;;;7.75;6.25;;;;;19.27;72.79;101641.44;4975315;28;45418;-75
2021/06/26 09:01:43;;;;;;;;;8.50;8.50;;;;;19.28;72.64;101631.66;4972777;28;45485;-75
2021/06/26 09:04:15;;;;;;;;;8.50;7.75;;;;;19.32;72.51;101628.72;4971700;28;45515;-75
2021/06/26 09:06:48;;;;;;;;;12.75;10.00;;;;;19.39;72.69;101644.38;4971226;28;45705;-75
2021/06/26 09:09:14;;;;;;;;;9.75;8.25;;;;;19.40;73.05;101635.44;4975015;28;45672;-75
2021/06/26 09:11:39;;;;;;;;;6.75;6.75;;;;;19.43;72.94;101633.44;4977221;28;45539;-75
2021/06/26 09:14:19;;;;;;;;;9.50;8.75;;;;;19.49;72.16;101632.25;4976182;28;45685;-75
2021/06/26 09:16:52;;;;;;;;;9.75;9.75;;;;;19.59;72.46;101639.72;4971038;28;45502;-75
2021/06/26 09:19:18;;;;;;;;;7.75;7.75;;;;;19.61;72.55;101624.47;4971656;28;45910;-75
2021/06/26 09:21:54;;;;;;;;;9.00;9.00;;;;;19.67;72.56;101629.47;4973988;28;45515;-75
2021/06/26 09:24:19;;;;;;;;;8.00;6.25;;;;;19.71;72.10;101623.00;4974730;28;45597;-75
2021/06/26 09:26:57;;;;;;;;;9.00;8.75;;;;;19.82;72.81;101613.53;4973832;28;45749;-74
2021/06/26 09:29:23;;;;;;;;;8.50;8.50;;;;;19.86;72.33;101615.06;4979690;28;45568;-75
2021/06/26 09:32:00;;;;;;;;;9.25;7.75;;;;;19.96;72.16;101624.25;4978404;28;45324;-74
2021/06/26 09:34:39;;;;;;;;;9.00;8.50;;;;;19.96;72.07;101613.56;4972646;28;45692;-74
2021/06/26 09:37:07;;;;;;;;;9.50;9.00;;;;;20.06;71.88;101626.34;4975977;28;45716;-74
2021/06/26 09:39:38;;;;;;;;;12.00;11.75;;;;;20.12;72.22;101620.69;4979685;28;45565;-74
2021/06/26 09:42:24;;;;;;;;;11.75;10.75;;;;;20.15;71.07;101612.47;4980398;28;45305;-74
2021/06/26 09:44:59;;;;;;;;;11.00;10.00;;;;;20.17;70.93;101615.09;4979572;28;45585;-74
2021/06/26 09:47:34;;;;;;;;;10.00;9.25;;;;;20.21;71.37;101620.13;4990614;28;45594;-74
2021/06/26 09:50:22;;;;;;;;;6.00;6.00;;;;;20.25;71.27;101626.13;4973468;28;46144;-76
2021/06/26 09:52:57;;;;;;;;;7.25;7.25;;;;;20.24;71.33;101619.09;4972638;28;46953;-74
2021/06/26 09:55:29;;;;;;;;;11.25;11.00;;;;;20.29;70.56;101621.47;4979229;28;46894;-74
2021/06/26 09:57:56;;;;;;;;;8.25;5.25;;;;;20.33;70.55;101633.69;4968870;28;45466;-74
2021/06/26 10:00:25;;;;;;;;;11.75;10.25;;;;;20.35;69.60;101634.44;4975715;28;45625;-75
2021/06/26 10:02:51;;;;;;;;;7.50;6.75;;;;;20.34;69.99;101630.94;4978283;28;46950;-75
2021/06/26 10:05:17;;;;;;;;;8.50;8.25;;;;;20.31;70.67;101628.44;4980076;28;45447;-75
2021/06/26 10:07:47;;;;;;;;;8.25;7.75;;;;;20.32;70.02;101642.66;4979688;28;45427;-75
2021/06/26 10:10:14;;;;;;;;;14.25;11.50;;;;;20.30;70.74;101639.19;4981218;28;45230;-75
2021/06/26 10:12:41;;;;;;;;;12.25;9.50;;;;;20.24;71.57;101640.44;4980546;28;45302;-75
2021/06/26 10:15:08;;;;;;;;;9.25;8.75;;;;;20.19;69.09;101635.38;4980664;28;45269;-74
2021/06/26 10:17:35;;;;;;;;;12.25;10.50;;;;;20.15;69.99;101630.34;4981194;28;46309;-76
2021/06/26 10:20:02;;;;;;;;;11.50;10.75;;;;;20.17;69.98;101639.09;4981014;28;45572;-72
2021/06/26 10:22:28;;;;;;;;;11.00;11.00;;;;;20.13;71.08;101635.75;4981285;28;45209;-75
2021/06/26 10:24:54;;;;;;;;;9.00;8.00;;;;;20.16;69.86;101635.56;4981607;28;45273;-74
2021/06/26 10:27:22;;;;;;;;;11.00;11.00;;;;;20.14;70.45;101629.47;4981593;28;45327;-74
2021/06/26 10:29:49;;;;;;;;;11.00;9.50;;;;;20.17;71.25;101631.09;4979853;28;45570;-74
2021/06/26 10:32:16;;;;;;;;;9.25;9.00;;;;;20.19;69.89;101626.53;4980527;28;45538;-74
2021/06/26 10:34:49;;;;;;;;;9.50;9.00;;;;;20.21;70.57;101625.47;4979906;28;46192;-74
2021/06/26 10:37:20;;;;;;;;;10.25;10.25;;;;;20.26;70.01;101624.31;4980302;28;46614;-74
2021/06/26 10:39:47;;;;;;;;;9.00;8.00;;;;;20.30;69.71;101625.84;4980401;28;45374;-75
2021/06/26 10:42:17;;;;;;;;;9.25;9.25;;;;;20.32;69.31;101624.81;4980857;28;45475;-75
2021/06/26 10:44:43;;;;;;;;;8.75;8.25;;;;;20.37;69.08;101629.91;4981335;28;45477;-75
2021/06/26 10:47:09;;;;;;;;;10.75;9.00;;;;;20.37;69.03;101624.56;4981186;28;45273;-75
2021/06/26 10:49:35;;;;;;;;;11.00;10.75;;;;;20.41;69.56;101619.88;4981029;28;45612;-75
2021/06/26 10:52:16;;;;;;;;;11.00;8.75;;;;;20.45;69.17;101616.91;4981489;28;45366;-75
2021/06/26 10:54:56;;;;;;;;;11.50;9.00;;;;;20.46;68.83;101612.44;4981481;28;45542;-76
2021/06/26 10:57:24;;;;;;;;;11.00;10.00;;;;;20.46;69.08;101613.31;4981102;28;45725;-76
2021/06/26 10:59:56;;;;;;;;;10.50;9.50;;;;;20.48;69.70;101623.88;4980559;28;45490;-75
2021/06/26 11:02:21;;;;;;;;;9.75;8.00;;;;;20.49;69.01;101619.41;4981499;28;45438;-76
2021/06/26 11:04:47;;;;;;;;;10.25;10.00;;;;;20.43;68.50;101618.81;4970070;28;47115;-76
2021/06/26 11:07:13;;;;;;;;;11.00;10.00;;;;;20.43;68.02;101616.16;4977059;28;46242;-76
2021/06/26 11:09:43;;;;;;;;;16.25;13.50;;;;;20.42;69.53;101606.41;4980058;28;45261;-76
2021/06/26 11:12:13;;;;;;;;;8.75;7.50;;;;;20.45;69.03;101606.25;4981319;28;45420;-76
2021/06/26 11:14:50;;;;;;;;;12.25;8.75;;;;;20.54;68.21;101620.00;4980222;28;45508;-76
2021/06/26 11:17:16;;;;;;;;;12.25;9.00;;;;;20.46;68.99;101607.97;4980860;28;46256;-76
2021/06/26 11:19:41;;;;;;;;;10.50;10.50;;;;;20.44;68.08;101601.88;4980570;28;45408;-76
2021/06/26 11:22:07;;;;;;;;;7.75;6.50;;;;;20.48;69.09;101596.31;4980812;28;45282;-76
2021/06/26 11:24:38;;;;;;;;;13.00;11.25;;;;;20.46;69.01;101585.75;4980942;28;45186;-76
2021/06/26 11:27:05;;;;;;;;;10.00;9.50;;;;;20.49;68.59;101592.72;4980735;28;45456;-76
2021/06/26 11:29:37;;;;;;;;;8.75;8.75;;;;;20.50;68.15;101587.25;4979450;28;45561;-76
2021/06/26 11:32:18;;;;;;;;;10.50;8.50;;;;;20.48;69.39;101582.97;4980717;28;45456;-76
2021/06/26 11:34:51;;;;;;;;;10.25;8.50;;;;;20.45;68.30;101579.53;4980745;28;45462;-76
2021/06/26 11:37:16;;;;;;;;;10.25;9.00;;;;;20.43;67.99;101583.25;4980713;28;46202;-76
2021/06/26 11:39:42;;;;;;;;;12.00;10.00;;;;;20.40;68.46;101586.09;4980919;28;45249;-76
2021/06/26 11:42:16;;;;;;;;;9.75;9.00;;;;;20.41;67.87;101588.69;4980456;28;45450;-76
2021/06/26 11:44:41;;;;;;;;;12.50;9.50;;;;;20.45;68.45;101592.88;4980416;28;45665;-76
2021/06/26 11:47:08;;;;;;;;;15.25;12.50;;;;;20.43;69.11;101586.78;4980482;28;45701;-76
2021/06/26 11:49:40;;;;;;;;;15.00;15.00;;;;;20.51;68.08;101593.47;4978758;28;45410;-76
2021/06/26 11:52:09;;;;;;;;;12.25;12.25;;;;;20.50;68.16;101583.72;4979060;28;45795;-75
2021/06/26 11:54:36;;;;;;;;;14.50;12.50;;;;;20.53;69.81;101580.88;4980350;28;45288;-76
2021/06/26 11:57:02;;;;;;;;;12.50;11.50;;;;;20.53;69.10;101586.22;4979521;28;45785;-77
2021/06/26 11:59:47;;;;;;;;;18.50;16.00;;;;;20.52;68.48;101585.34;4973434;28;45315;-76
2021/06/26 12:02:15;;;;;;;;;12.75;12.50;;;;;20.53;68.15;101591.56;4980146;28;45336;-76
2021/06/26 12:04:41;;;;;;;;;14.25;14.25;;;;;20.53;70.01;101599.56;4978759;28;45340;-76
2021/06/26 12:07:07;;;;;;;;;15.00;13.50;;;;;20.52;70.84;101596.03;4974677;28;45400;-76
2021/06/26 12:09:34;;;;;;;;;15.25;15.25;;;;;20.55;70.00;101597.66;4977373;28;45182;-76
2021/06/26 12:11:59;;;;;;;;;14.00;13.50;;;;;20.50;68.86;101597.94;4979455;28;45269;-76
2021/06/26 12:14:27;;;;;;;;;18.00;14.75;;;;;20.49;68.67;101600.72;4977445;28;46101;-76
2021/06/26 12:17:00;;;;;;;;;17.25;16.00;;;;;20.50;70.79;101608.63;4980228;28;45446;-76
2021/06/26 12:19:30;;;;;;;;;14.50;13.50;;;;;20.44;69.57;101598.34;4980067;28;45392;-76
2021/06/26 12:21:56;;;;;;;;;13.75;13.50;;;;;20.46;69.21;101602.63;4976327;28;47047;-77
2021/06/26 12:24:36;;;;;;;;;18.00;17.00;;;;;20.49;69.79;101600.72;4978588;28;45609;-77
2021/06/26 12:27:07;;;;;;;;;15.50;14.00;;;;;20.51;67.95;101594.34;4979502;28;45557;-77
2021/06/26 12:29:34;;;;;;;;;19.25;16.50;;;;;20.53;69.54;101595.09;4978829;28;45860;-77
2021/06/26 12:32:00;;;;;;;;;17.50;17.50;;;;;20.56;69.30;101592.25;4969497;28;45444;-77
2021/06/26 12:34:25;;;;;;;;;16.25;12.50;;;;;20.64;66.98;101593.56;4975558;28;45951;-75
2021/06/26 12:36:56;;;;;;;;;14.50;14.50;;;;;20.67;67.31;101588.88;4976015;28;46466;-76
2021/06/26 12:39:23;;;;;;;;;15.25;14.00;;;;;20.68;68.55;101587.94;4978023;28;45443;-76
2021/06/26 12:42:09;;;;;;;;;16.50;15.75;;;;;20.68;67.35;101579.91;4979576;28;45467;-76
2021/06/26 12:44:35;;;;;;;;;16.25;15.25;;;;;20.73;67.89;101581.44;4977685;28;46275;-76
2021/06/26 12:47:00;;;;;;;;;12.50;12.50;;;;;20.73;67.67;101570.75;4974554;28;46208;-77
2021/06/26 12:49:37;;;;;;;;;17.75;15.75;;;;;20.72;68.56;101569.88;4977457;28;45340;-76
2021/06/26 12:52:14;;;;;;;;;15.50;14.50;;;;;20.74;68.00;101561.78;4978834;28;45416;-76
2021/06/26 12:54:47;;;;;;;;;16.25;15.00;;;;;20.73;67.32;101566.28;4980723;28;45475;-76
2021/06/26 12:57:13;;;;;;;;;17.50;16.75;;;;;20.63;67.13;101566.00;4982147;28;45439;-76
2021/06/26 12:59:38;;;;;;;;;24.25;19.25;;;;;20.60;67.85;101550.16;4981519;28;45356;-76
2021/06/26 13:02:04;;;;;;;;;18.00;16.00;;;;;20.58;67.40;101544.94;4983030;28;45773;-76
2021/06/26 13:04:44;;;;;;;;;16.75;16.00;;;;;20.58;67.06;101552.06;4980981;28;45513;-76
2021/06/26 13:07:21;;;;;;;;;16.50;16.50;;;;;20.59;67.96;101548.47;4981153;28;45336;-76
2021/06/26 13:09:48;;;;;;;;;19.00;17.75;;;;;20.65;67.93;101553.41;4982627;28;45794;-76
2021/06/26 13:12:23;;;;;;;;;17.50;14.25;;;;;20.63;67.23;101549.09;4977704;28;45578;-75
2021/06/26 13:14:55;;;;;;;;;19.50;17.00;;;;;20.64;67.92;101542.81;4981745;28;45411;-76
2021/06/26 13:17:22;;;;;;;;;14.75;14.25;;;;;20.63;67.05;101541.97;4982378;28;45301;-75
2021/06/26 13:19:49;;;;;;;;;15.00;14.50;;;;;20.68;67.25;101537.19;4981546;28;45320;-76
2021/06/26 13:22:16;;;;;;;;;14.25;13.25;;;;;20.71;67.63;101540.63;4982659;28;45371;-76
2021/06/26 13:24:42;;;;;;;;;16.50;13.25;;;;;20.73;67.45;101544.03;4982491;28;45455;-76
2021/06/26 13:27:08;;;;;;;;;15.25;14.50;;;;;20.73;68.57;101538.69;4980372;28;45444;-76
2021/06/26 13:29:34;;;;;;;;;16.50;15.50;;;;;20.77;67.77;101533.06;4982155;28;45636;-76
2021/06/26 13:31:59;;;;;;;;;14.25;12.50;;;;;20.86;67.25;101536.09;4982430;28;45208;-76
2021/06/26 13:34:25;;;;;;;;;17.75;17.00;;;;;20.85;67.80;101521.03;4979538;28;45397;-76
2021/06/26 13:36:50;;;;;;;;;16.50;14.75;;;;;20.88;67.40;101519.03;4970019;28;47295;-76
2021/06/26 13:39:16;;;;;;;;;19.50;16.75;;;;;20.91;67.37;101513.47;4976332;28;45443;-76
2021/06/26 13:41:41;;;;;;;;;12.25;12.25;;;;;20.96;66.72;101506.97;4968892;28;45416;-76
2021/06/26 13:44:07;;;;;;;;;16.25;13.75;;;;;21.07;67.51;101516.97;4972040;28;45383;-76
2021/06/26 13:46:32;;;;;;;;;16.50;14.75;;;;;21.08;67.46;101508.88;4976415;28;45380;-76
2021/06/26 13:48:58;;;;;;;;;14.75;12.75;;;;;21.11;67.15;101500.63;4978950;28;45488;-76
2021/06/26 13:51:23;;;;;;;;;11.00;10.00;;;;;21.18;67.54;101498.44;4966828;28;45422;-76
2021/06/26 13:53:50;;;;;;;;;15.75;15.75;;;;;21.28;66.93;101506.69;4968499;28;45546;-76
2021/06/26 13:56:15;;;;;;;;;15.75;13.25;;;;;21.33;68.01;101501.91;4980203;28;46655;-76
2021/06/26 13:58:41;;;;;;;;;21.00;19.50;;;;;21.33;67.35;101503.72;4975921;28;45435;-76
2021/06/26 14:01:06;;;;;;;;;17.00;17.00;;;;;21.33;67.12;101496.56;4974445;28;45571;-76
2021/06/26 14:03:31;;;;;;;;;17.50;17.50;;;;;21.38;67.39;101496.25;4981861;28;45224;-76
2021/06/26 14:05:57;;;;;;;;;14.25;12.00;;;;;21.46;67.14;101493.03;4979954;28;45428;-76
2021/06/26 14:08:22;;;;;;;;;11.75;11.75;;;;;21.48;66.84;101496.47;4974551;28;45150;-76
2021/06/26 14:10:51;;;;;;;;;11.00;11.00;;;;;21.53;66.62;101493.50;4981813;28;45463;-76
2021/06/26 14:13:16;;;;;;;;;12.75;11.50;;;;;21.54;65.87;101501.41;4981047;28;45647;-77
2021/06/26 14:15:42;;;;;;;;;14.25;13.25;;;;;21.54;66.02;101490.69;4980966;28;45499;-76
2021/06/26 14:18:07;;;;;;;;;12.25;11.50;;;;;21.51;65.82;101480.19;4981668;28;45482;-75
2021/06/26 14:20:32;;;;;;;;;16.50;13.50;;;;;21.54;65.95;101484.50;4979663;28;45655;-76
2021/06/26 14:22:59;;;;;;;;;10.25;10.25;;;;;21.55;65.79;101468.34;4981070;28;45434;-76
2021/06/26 14:25:25;;;;;;;;;14.00;12.00;;;;;21.64;65.38;101479.38;4981568;28;45520;-77
2021/06/26 14:27:51;;;;;;;;;9.75;9.50;;;;;21.62;65.28;101467.91;4979819;28;45771;-76
2021/06/26 14:30:17;;;;;;;;;15.50;12.00;;;;;21.64;65.26;101458.84;4980917;28;45243;-77
2021/06/26 14:32:42;;;;;;;;;14.50;11.75;;;;;21.68;65.60;101459.50;4980213;28;46110;-77
2021/06/26 14:35:08;;;;;;;;;13.50;12.75;;;;;21.71;65.83;101453.91;4981618;28;45535;-77
2021/06/26 14:37:34;;;;;;;;;13.25;12.75;;;;;21.76;65.08;101453.56;4979679;28;45759;-77
2021/06/26 14:40:00;;;;;;;;;17.75;14.75;;;;;21.86;65.00;101451.13;4979841;28;45491;-77
2021/06/26 14:42:26;;;;;;;;;26.00;22.50;;;;;21.81;64.79;101449.63;4981109;28;45650;-77
2021/06/26 14:44:52;;;;;;;;;15.25;13.00;;;;;21.84;64.37;101447.69;4981551;28;45582;-77
2021/06/26 14:47:18;;;;;;;;;18.75;18.50;;;;;21.86;64.57;101432.38;4978980;28;45451;-77
2021/06/26 14:49:44;;;;;;;;;15.00;13.00;;;;;21.87;64.48;101431.47;4981506;28;45412;-77
2021/06/26 14:52:11;;;;;;;;;12.75;12.75;;;;;21.86;64.25;101419.91;4979346;28;46249;-77
2021/06/26 14:54:37;;;;;;;;;13.75;13.75;;;;;21.91;64.59;101422.25;4981329;28;45339;-77
2021/06/26 14:57:04;;;;;;;;;15.25;13.25;;;;;21.93;65.09;101423.00;4978865;28;45444;-77
2021/06/26 14:59:29;;;;;;;;;13.50;13.50;;;;;21.94;64.83;101411.34;4980883;28;45211;-77
2021/06/26 15:01:55;;;;;;;;;17.75;16.25;;;;;21.95;64.52;101402.34;4980864;28;45365;-77
2021/06/26 15:04:20;;;;;;;;;22.25;18.75;;;;;21.98;63.88;101406.59;4981036;28;46211;-77
2021/06/26 15:06:45;;;;;;;;;15.00;13.75;;;;;21.98;64.41;101403.94;4980019;28;45424;-77
2021/06/26 15:09:11;;;;;;;;;13.00;11.25;;;;;22.03;64.52;101405.31;4979576;28;45495;-77
2021/06/26 15:11:36;;;;;;;;;17.25;15.25;;;;;22.02;64.63;101390.25;4980980;28;45378;-77
2021/06/26 15:14:02;;;;;;;;;14.00;13.25;;;;;22.08;64.17;101390.75;4979252;28;48096;-77
2021/06/26 15:16:27;;;;;;;;;12.75;10.50;;;;;22.12;63.91;101398.47;4980093;28;45447;-77
2021/06/26 15:18:53;;;;;;;;;9.75;8.75;;;;;22.15;64.42;101400.03;4980031;28;45510;-77
2021/06/26 15:21:19;;;;;;;;;12.25;11.00;;;;;22.14;64.05;101384.97;4980932;28;45440;-77
2021/06/26 15:23:45;;;;;;;;;9.75;8.75;;;;;22.18;63.83;101386.44;4980502;28;45649;-77
2021/06/26 15:26:10;;;;;;;;;12.50;12.50;;;;;22.18;64.45;101380.22;4979334;28;45733;-77
2021/06/26 15:28:35;;;;;;;;;13.25;12.50;;;;;22.18;63.71;101385.59;4979912;28;45442;-77
2021/06/26 15:31:01;;;;;;;;;16.75;15.00;;;;;22.23;63.01;101394.13;4980618;28;45269;-77
2021/06/26 15:33:27;;;;;;;;;12.25;12.25;;;;;22.20;63.36;101389.84;4981044;28;46577;-77
2021/06/26 15:35:53;;;;;;;;;11.50;11.25;;;;;22.23;63.27;101395.00;4980486;28;45230;-77
2021/06/26 15:38:25;;;;;;;;;10.25;10.25;;;;;22.22;63.26;101387.09;4980019;28;45530;-77
2021/06/26 15:40:57;;;;;;;;;12.50;10.50;;;;;22.24;62.80;101383.34;4979111;28;45623;-77
2021/06/26 15:43:24;;;;;;;;;17.25;13.00;;;;;22.25;63.99;101378.81;4980291;28;45408;-77
2021/06/26 15:45:51;;;;;;;;;10.50;10.25;;;;;22.28;62.83;101378.59;4980424;28;45404;-77
2021/06/26 15:48:17;;;;;;;;;10.75;10.50;;;;;22.30;62.66;101390.03;4979799;28;45317;-77
2021/06/26 15:50:43;;;;;;;;;10.50;10.25;;;;;22.33;64.50;101389.81;4980147;28;45460;-77
2021/06/26 15:53:09;;;;;;;;;11.75;11.25;;;;;22.31;63.47;101381.06;4980228;28;46358;-77
2021/06/26 15:55:36;;;;;;;;;14.25;12.25;;;;;22.32;63.14;101372.03;4980290;28;45460;-77
2021/06/26 15:58:03;;;;;;;;;9.50;9.25;;;;;22.31;63.38;101377.50;4979476;28;45262;-77
2021/06/26 16:00:29;;;;;;;;;10.00;10.00;;;;;22.28;63.75;101377.72;4980311;28;45400;-77
2021/06/26 16:02:54;;;;;;;;;11.00;11.00;;;;;22.25;63.15;101366.28;4979918;28;46294;-77
2021/06/26 16:05:19;;;;;;;;;12.25;12.25;;;;;22.28;63.06;101364.34;4980360;28;45380;-77
2021/06/26 16:07:47;;;;;;;;;12.00;12.00;;;;;22.31;63.00;101358.78;4979477;28;45340;-77
2021/06/26 16:10:14;;;;;;;;;14.50;13.50;;;;;22.33;62.76;101356.84;4979848;28;45514;-77
2021/06/26 16:12:40;;;;;;;;;13.75;10.50;;;;;22.35;62.09;101360.25;4980183;28;46350;-77
2021/06/26 16:15:10;;;;;;;;;12.25;11.00;;;;;22.34;62.54;101353.19;4980101;28;45249;-77